createdAt,value
2022-11-25T00:00:22.644Z,36.53
2022-11-25T00:03:10.987Z,35.33
2022-11-25T00:05:39.762Z,33.38
2022-11-25T00:08:08.044Z,31.10
2022-11-25T00:10:36.756Z,29.55
2022-11-25T00:13:04.986Z,30.33
2022-11-25T00:15:34.288Z,27.08
2022-11-25T00:18:02.848Z,29.40
2022-11-25T00:20:31.841Z,28.88
2022-11-25T00:22:59.948Z,28.75
2022-11-25T00:25:28.634Z,28.95
2022-11-25T00:27:56.799Z,29.63
2022-11-25T00:30:26.299Z,29.17
2022-11-25T00:32:55.991Z,29.55
2022-11-25T00:35:24.698Z,27.83
2022-11-25T00:37:52.868Z,27.30
2022-11-25T00:40:21.455Z,27.90
2022-11-25T00:43:08.142Z,28.08
2022-11-25T00:45:36.759Z,27.67
2022-11-25T00:48:05.523Z,29.90
2022-11-25T00:50:34.101Z,27.95
2022-11-25T00:53:02.511Z,27.10
2022-11-25T00:55:51.424Z,27.88
2022-11-25T00:58:19.651Z,27.95
2022-11-25T01:00:48.760Z,27.92
2022-11-25T01:03:17.042Z,28.02
2022-11-25T01:05:45.824Z,28.45
2022-11-25T01:08:15.411Z,27.95
2022-11-25T01:10:44.010Z,26.60
2022-11-25T01:13:12.211Z,29.17
2022-11-25T01:15:40.777Z,29.15
2022-11-25T01:18:10.656Z,28.40
2022-11-25T01:20:39.519Z,29.38
2022-11-25T01:23:07.971Z,27.80
2022-11-25T01:25:37.716Z,29.95
2022-11-25T01:28:07.338Z,30.35
2022-11-25T01:30:41.076Z,29.25
2022-11-25T01:33:09.624Z,27.55
2022-11-25T01:35:38.782Z,29.35
2022-11-25T01:38:07.095Z,27.58
2022-11-25T01:40:36.196Z,28.45
2022-11-25T01:43:04.625Z,27.77
2022-11-25T01:45:39.004Z,27.38
2022-11-25T01:48:22.344Z,25.77
2022-11-25T01:50:51.313Z,26.65
2022-11-25T01:53:21.624Z,28.45
2022-11-25T01:56:00.513Z,28.73
2022-11-25T01:58:33.965Z,26.92
2022-11-25T02:01:02.541Z,25.17
2022-11-25T02:03:37.201Z,25.60
2022-11-25T02:06:23.252Z,25.60
2022-11-25T02:08:57.828Z,25.27
2022-11-25T02:11:30.852Z,26.30
2022-11-25T02:14:00.845Z,26.98
2022-11-25T02:16:29.796Z,25.90
2022-11-25T02:18:58.572Z,25.05
2022-11-25T02:21:37.724Z,24.95
2022-11-25T02:24:43.366Z,25.55
2022-11-25T02:27:12.362Z,24.35
2022-11-25T02:29:44.555Z,24.40
2022-11-25T02:32:13.323Z,24.85
2022-11-25T02:34:48.247Z,25.83
2022-11-25T02:37:21.871Z,25.67
2022-11-25T02:39:52.168Z,23.60
2022-11-25T02:42:23.071Z,25.73
2022-11-25T02:44:51.321Z,24.85
2022-11-25T02:47:19.884Z,25.27
2022-11-25T02:49:48.443Z,26.20
2022-11-25T02:52:17.387Z,24.98
2022-11-25T02:54:45.777Z,24.83
2022-11-25T02:57:14.591Z,27.40
2022-11-25T02:59:42.845Z,28.25
2022-11-25T03:02:11.577Z,29.70
2022-11-25T03:04:40.714Z,29.42
2022-11-25T03:07:09.300Z,29.48
2022-11-25T03:09:37.568Z,27.40
2022-11-25T03:12:21.794Z,28.83
2022-11-25T03:14:54.428Z,33.60
2022-11-25T03:17:23.303Z,33.38
2022-11-25T03:19:51.567Z,33.15
2022-11-25T03:22:20.775Z,36.72
2022-11-25T03:24:49.166Z,34.30
2022-11-25T03:27:18.159Z,32.80
2022-11-25T03:29:46.819Z,30.48
2022-11-25T03:32:16.060Z,27.67
2022-11-25T03:34:44.735Z,27.88
2022-11-25T03:37:13.538Z,26.63
2022-11-25T03:39:42.085Z,28.33
2022-11-25T03:42:11.391Z,28.92
2022-11-25T03:44:39.943Z,29.02
2022-11-25T03:47:09.079Z,27.42
2022-11-25T03:49:39.082Z,27.70
2022-11-25T03:52:08.971Z,27.85
2022-11-25T03:54:37.515Z,27.02
2022-11-25T03:57:21.761Z,26.85
2022-11-25T03:59:50.136Z,26.50
2022-11-25T04:02:19.745Z,28.30
2022-11-25T04:04:48.931Z,26.27
2022-11-25T04:07:19.261Z,25.85
2022-11-25T04:09:47.576Z,26.98
2022-11-25T04:12:38.895Z,27.50
2022-11-25T04:15:10.023Z,27.33
2022-11-25T04:17:41.130Z,26.60
2022-11-25T04:20:10.592Z,25.98
2022-11-25T04:22:41.674Z,25.23
2022-11-25T04:25:11.584Z,31.35
2022-11-25T04:27:40.189Z,35.53
2022-11-25T04:30:09.884Z,31.42
2022-11-25T04:32:41.403Z,29.20
2022-11-25T04:35:11.638Z,28.75
2022-11-25T04:37:43.862Z,28.67
2022-11-25T04:40:12.707Z,28.85
2022-11-25T04:42:48.006Z,27.88
2022-11-25T04:45:23.617Z,27.38
2022-11-25T04:47:53.998Z,29.67
2022-11-25T04:50:24.175Z,28.80
2022-11-25T04:53:00.092Z,28.65
2022-11-25T04:55:29.955Z,27.73
2022-11-25T04:58:00.813Z,28.30
2022-11-25T05:00:30.732Z,27.27
2022-11-25T05:02:59.699Z,27.50
2022-11-25T05:05:29.188Z,27.95
2022-11-25T05:08:00.662Z,28.73
2022-11-25T05:10:29.462Z,25.88
2022-11-25T05:12:58.919Z,29.67
2022-11-25T05:15:27.134Z,34.40
2022-11-25T05:17:56.495Z,39.75
2022-11-25T05:20:41.137Z,36.83
2022-11-25T05:23:10.493Z,38.13
2022-11-25T05:25:38.894Z,38.97
2022-11-25T05:28:33.356Z,42.30
2022-11-25T05:31:02.237Z,42.20
2022-11-25T05:33:31.191Z,42.78
2022-11-25T05:36:27.820Z,39.60
2022-11-25T05:38:57.663Z,42.38
2022-11-25T05:41:36.970Z,40.17
2022-11-25T05:44:05.566Z,40.03
2022-11-25T05:46:34.771Z,34.72
2022-11-25T05:49:04.286Z,27.98
2022-11-25T05:51:33.109Z,29.20
2022-11-25T05:54:05.006Z,31.02
2022-11-25T05:56:36.138Z,35.33
2022-11-25T05:59:05.086Z,35.13
2022-11-25T06:01:47.271Z,36.95
2022-11-25T06:04:17.016Z,38.20
2022-11-25T06:06:47.337Z,36.78
2022-11-25T06:09:16.558Z,33.92
2022-11-25T06:11:44.730Z,34.20
2022-11-25T06:14:13.635Z,35.08
2022-11-25T06:16:41.864Z,32.55
2022-11-25T06:19:47.064Z,32.15
2022-11-25T06:22:15.748Z,32.10
2022-11-25T06:24:46.527Z,30.88
2022-11-25T06:27:17.184Z,30.50
2022-11-25T06:29:45.890Z,31.15
2022-11-25T06:32:14.866Z,34.97
2022-11-25T06:35:06.007Z,36.55
2022-11-25T06:37:48.212Z,34.10
2022-11-25T06:40:16.996Z,32.05
2022-11-25T06:42:45.171Z,34.13
2022-11-25T06:45:13.755Z,35.90
2022-11-25T06:47:42.016Z,28.85
2022-11-25T06:50:10.856Z,30.60
2022-11-25T06:52:39.080Z,30.27
2022-11-25T06:55:08.317Z,31.35
2022-11-25T06:57:36.598Z,33.45
2022-11-25T07:00:05.931Z,38.00
2022-11-25T07:02:40.741Z,50.58
2022-11-25T07:05:11.964Z,49.10
2022-11-25T07:07:40.334Z,40.35
2022-11-25T07:10:09.205Z,36.83
2022-11-25T07:12:37.644Z,37.78
2022-11-25T07:15:06.864Z,36.38
2022-11-25T07:17:35.279Z,32.67
2022-11-25T07:20:04.313Z,35.47
2022-11-25T07:22:32.531Z,34.13
2022-11-25T07:25:01.266Z,38.50
2022-11-25T07:27:29.517Z,39.75
2022-11-25T07:30:29.529Z,41.00
2022-11-25T07:32:46.193Z,43.30
2022-11-25T07:35:14.675Z,47.30
2022-11-25T07:37:42.848Z,41.65
2022-11-25T07:40:12.076Z,38.70
2022-11-25T07:42:40.377Z,36.55
2022-11-25T07:45:11.104Z,39.63
2022-11-25T07:47:43.969Z,48.53
2022-11-25T07:50:12.724Z,45.85
2022-11-25T07:52:41.061Z,38.33
2022-11-25T07:55:10.128Z,38.20
2022-11-25T07:57:38.402Z,36.40
2022-11-25T08:00:07.910Z,36.00
2022-11-25T08:02:41.928Z,33.53
2022-11-25T08:05:11.998Z,33.75
2022-11-25T08:07:40.171Z,30.52
2022-11-25T08:10:09.470Z,29.40
2022-11-25T08:12:37.992Z,29.35
2022-11-25T08:15:07.148Z,28.45
2022-11-25T08:17:35.300Z,29.50
2022-11-25T08:20:04.358Z,27.83
2022-11-25T08:22:32.747Z,24.02
2022-11-25T08:25:01.525Z,24.23
2022-11-25T08:27:29.828Z,24.05
2022-11-25T08:29:58.730Z,26.23
2022-11-25T08:32:27.054Z,26.50
2022-11-25T08:34:55.952Z,27.45
2022-11-25T08:37:24.669Z,26.63
2022-11-25T08:39:53.948Z,24.17
2022-11-25T08:42:22.735Z,25.65
2022-11-25T08:44:53.246Z,26.25
2022-11-25T08:47:22.606Z,25.42
2022-11-25T08:49:54.997Z,26.63
2022-11-25T08:54:52.022Z,25.83
2022-11-25T08:57:20.366Z,24.05
2022-11-25T08:59:49.273Z,21.20
2022-11-25T09:02:18.289Z,21.83
2022-11-25T09:04:47.214Z,23.02
2022-11-25T09:07:15.585Z,25.75
2022-11-25T09:09:44.912Z,22.00
2022-11-25T09:12:13.589Z,22.25
2022-11-25T09:14:42.129Z,20.27
2022-11-25T09:17:13.832Z,22.38
2022-11-25T09:19:42.436Z,22.15
2022-11-25T09:22:10.744Z,21.65
2022-11-25T09:24:39.496Z,21.05
2022-11-25T09:27:07.748Z,21.70
2022-11-25T09:29:36.808Z,21.38
2022-11-25T09:32:05.333Z,21.48
2022-11-25T09:34:34.369Z,22.70
2022-11-25T09:37:02.751Z,23.00
2022-11-25T09:39:32.973Z,26.23
2022-11-25T09:42:49.897Z,29.20
2022-11-25T09:45:43.722Z,26.58
2022-11-25T09:48:52.480Z,26.52
2022-11-25T09:51:39.853Z,25.10
2022-11-25T09:54:17.445Z,27.17
2022-11-25T09:56:53.504Z,30.15
2022-11-25T09:59:47.801Z,31.70
2022-11-25T10:02:42.759Z,27.90
2022-11-25T10:05:43.697Z,27.08
2022-11-25T10:08:20.622Z,25.50
2022-11-25T10:10:56.179Z,27.13
2022-11-25T10:13:58.120Z,29.10
2022-11-25T10:16:31.122Z,28.08
2022-11-25T10:19:13.133Z,26.77
2022-11-25T10:21:41.556Z,28.75
2022-11-25T10:24:15.347Z,29.55
2022-11-25T10:26:55.505Z,29.30
2022-11-25T10:29:30.211Z,29.17
2022-11-25T10:32:26.062Z,29.30
2022-11-25T10:35:05.419Z,29.80
2022-11-25T10:37:42.826Z,29.65
2022-11-25T10:40:18.291Z,30.42
2022-11-25T10:42:46.615Z,28.80
2022-11-25T10:45:15.401Z,28.08
2022-11-25T10:48:08.249Z,26.30
2022-11-25T10:50:55.168Z,26.80
2022-11-25T10:53:26.545Z,27.20
2022-11-25T10:56:17.175Z,26.27
2022-11-25T10:58:46.352Z,24.95
2022-11-25T11:01:25.722Z,24.90
2022-11-25T11:04:15.236Z,25.30
2022-11-25T11:06:47.242Z,26.50
2022-11-25T11:09:37.182Z,27.02
2022-11-25T11:12:24.130Z,26.77
2022-11-25T11:14:54.309Z,26.80
2022-11-25T11:17:33.285Z,26.23
2022-11-25T11:20:20.139Z,24.15
2022-11-25T11:23:08.845Z,25.10
2022-11-25T11:25:40.199Z,26.38
2022-11-25T11:28:25.489Z,25.57
2022-11-25T11:31:02.213Z,24.10
2022-11-25T11:33:31.035Z,24.73
2022-11-25T11:36:38.356Z,25.05
2022-11-25T11:39:25.659Z,25.73
2022-11-25T11:42:04.769Z,34.80
2022-11-25T11:45:01.226Z,28.50
2022-11-25T11:47:58.703Z,27.38
2022-11-25T11:50:37.979Z,25.58
2022-11-25T11:53:23.863Z,27.35
2022-11-25T11:56:34.729Z,34.25
2022-11-25T11:59:37.955Z,27.13
2022-11-25T12:05:11.899Z,28.40
2022-11-25T12:07:46.830Z,27.23
2022-11-25T12:10:15.209Z,29.25
2022-11-25T12:13:03.979Z,28.70
2022-11-25T12:15:54.205Z,37.13
2022-11-25T12:18:47.888Z,42.65
2022-11-25T12:21:41.868Z,29.83
2022-11-25T12:24:21.747Z,34.15
2022-11-25T12:27:05.401Z,32.72
2022-11-25T12:29:48.193Z,26.90
2022-11-25T12:32:38.042Z,30.63
2022-11-25T12:35:24.933Z,26.60
2022-11-25T12:37:59.551Z,25.25
2022-11-25T12:40:42.588Z,31.13
2022-11-25T12:43:34.537Z,33.63
2022-11-25T12:46:39.944Z,36.78
2022-11-25T12:49:17.730Z,41.85
2022-11-25T12:52:09.486Z,40.42
2022-11-25T12:54:50.612Z,28.03
2022-11-25T12:57:47.397Z,30.75
2022-11-25T13:03:41.307Z,28.20
2022-11-25T13:06:34.805Z,26.20
2022-11-25T13:09:39.467Z,25.63
2022-11-25T13:12:44.396Z,25.08
2022-11-25T13:15:26.851Z,26.42
2022-11-25T13:18:00.263Z,27.58
2022-11-25T13:20:29.484Z,53.53
2022-11-25T13:23:10.610Z,63.72
2022-11-25T13:25:41.931Z,31.95
2022-11-25T13:28:37.512Z,80.60
2022-11-25T13:31:14.373Z,34.47
2022-11-25T13:33:45.668Z,37.30
2022-11-25T13:36:23.155Z,28.42
2022-11-25T13:38:51.830Z,40.75
2022-11-25T13:41:20.629Z,46.90
2022-11-25T13:44:05.723Z,35.08
2022-11-25T13:50:19.016Z,32.42
2022-11-25T13:53:20.102Z,29.05
2022-11-25T13:55:52.101Z,42.33
2022-11-25T13:58:29.724Z,32.08
2022-11-25T14:00:57.887Z,29.55
2022-11-25T14:03:29.459Z,26.63
2022-11-25T14:06:19.896Z,36.47
2022-11-25T14:08:58.268Z,32.95
2022-11-25T14:11:29.412Z,29.27
2022-11-25T14:14:21.870Z,26.70
2022-11-25T14:17:08.909Z,27.42
2022-11-25T14:19:56.909Z,46.75
2022-11-25T14:22:54.327Z,46.05
2022-11-25T14:25:43.310Z,47.53
2022-11-25T14:28:43.598Z,45.92
2022-11-25T14:31:20.196Z,70.15
2022-11-25T14:33:48.654Z,40.63
2022-11-25T14:36:35.192Z,40.80
2022-11-25T14:39:09.471Z,35.05
2022-11-25T14:42:00.665Z,40.50
2022-11-25T14:44:52.382Z,36.40
2022-11-25T14:47:34.597Z,36.90
2022-11-25T14:53:11.452Z,47.53
2022-11-25T14:55:39.839Z,46.05
2022-11-25T14:58:12.795Z,53.67
2022-11-25T15:00:59.480Z,42.92
2022-11-25T15:03:29.158Z,36.95
2022-11-25T15:06:07.302Z,39.47
2022-11-25T15:08:41.387Z,31.75
2022-11-25T15:11:21.397Z,29.42
2022-11-25T15:14:04.488Z,39.45
2022-11-25T15:16:36.627Z,39.00
2022-11-25T15:19:12.956Z,29.73
2022-11-25T15:22:15.049Z,28.27
2022-11-25T15:24:41.461Z,29.70
2022-11-25T15:27:25.573Z,27.55
2022-11-25T15:29:55.914Z,26.70
2022-11-25T15:32:32.353Z,49.30
2022-11-25T15:35:02.598Z,35.50
2022-11-25T15:38:52.815Z,43.88
2022-11-25T15:42:04.371Z,101.38
2022-11-25T15:45:06.993Z,59.80
2022-11-25T15:47:38.543Z,37.30
2022-11-25T15:53:33.031Z,34.13
2022-11-25T15:56:24.330Z,63.67
2022-11-25T15:59:01.932Z,80.00
2022-11-25T16:01:55.780Z,69.55
2022-11-25T16:04:49.864Z,90.85
2022-11-25T16:07:24.398Z,44.92
2022-11-25T16:09:53.159Z,47.53
2022-11-25T16:12:21.670Z,52.97
2022-11-25T16:14:50.295Z,34.13
2022-11-25T16:17:29.264Z,35.40
2022-11-25T16:22:46.809Z,31.23
2022-11-25T16:25:41.530Z,42.78
2022-11-25T16:28:22.615Z,39.38
2022-11-25T16:31:17.305Z,35.25
2022-11-25T16:33:45.724Z,26.08
2022-11-25T16:36:28.963Z,29.08
2022-11-25T16:38:57.843Z,29.55
2022-11-25T16:41:27.086Z,33.38
2022-11-25T16:43:58.621Z,32.42
2022-11-25T16:49:51.737Z,36.35
2022-11-25T16:52:31.244Z,31.58
2022-11-25T16:55:00.526Z,34.55
2022-11-25T16:57:29.248Z,27.83
2022-11-25T17:00:00.982Z,28.33
2022-11-25T17:02:31.032Z,28.45
2022-11-25T17:05:19.073Z,32.63
2022-11-25T17:07:50.384Z,33.22
2022-11-25T17:10:20.262Z,34.67
2022-11-25T17:12:50.456Z,34.67
2022-11-25T17:15:27.934Z,45.30
2022-11-25T17:18:04.724Z,39.38
2022-11-25T17:20:35.043Z,31.25
2022-11-25T17:23:04.089Z,39.33
2022-11-25T17:25:37.023Z,29.23
2022-11-25T17:28:20.347Z,56.13
2022-11-25T17:30:55.475Z,42.83
2022-11-25T17:33:50.276Z,28.65
2022-11-25T17:36:44.644Z,28.55
2022-11-25T17:39:14.607Z,30.63
2022-11-25T17:41:50.549Z,27.70
2022-11-25T17:44:26.739Z,34.15
2022-11-25T17:46:56.760Z,31.00
2022-11-25T17:49:25.617Z,26.83
2022-11-25T17:51:54.036Z,28.38
2022-11-25T17:54:22.561Z,26.38
2022-11-25T17:56:52.665Z,31.42
2022-11-25T17:59:31.009Z,41.45
2022-11-25T18:02:01.201Z,50.72
2022-11-25T18:04:36.469Z,53.63
2022-11-25T18:07:05.168Z,42.92
2022-11-25T18:09:35.804Z,40.85
2022-11-25T18:12:10.051Z,38.15
2022-11-25T18:14:57.919Z,32.75
2022-11-25T18:17:27.102Z,42.25
2022-11-25T18:19:58.809Z,30.80
2022-11-25T18:22:27.064Z,33.78
2022-11-25T18:24:55.645Z,33.33
2022-11-25T18:27:28.945Z,31.35
2022-11-25T18:29:57.918Z,32.85
2022-11-25T18:32:27.284Z,31.58
2022-11-25T18:34:57.549Z,34.15
2022-11-25T18:37:28.584Z,34.25
2022-11-25T18:39:57.254Z,36.78
2022-11-25T18:42:27.547Z,34.47
2022-11-25T18:44:57.586Z,35.50
2022-11-25T18:47:52.213Z,38.85
2022-11-25T18:50:26.235Z,40.25
2022-11-25T18:52:55.129Z,44.03
2022-11-25T18:55:26.364Z,44.10
2022-11-25T18:57:54.735Z,49.15
2022-11-25T19:00:33.371Z,38.63
2022-11-25T19:03:17.644Z,35.28
2022-11-25T19:05:46.764Z,33.65
2022-11-25T19:08:15.547Z,35.10
2022-11-25T19:10:47.730Z,36.35
2022-11-25T19:13:35.277Z,32.63
2022-11-25T19:16:29.595Z,32.72
2022-11-25T19:18:58.172Z,33.67
2022-11-25T19:21:27.105Z,37.50
2022-11-25T19:23:55.439Z,37.38
2022-11-25T19:26:29.237Z,34.10
2022-11-25T19:29:22.896Z,34.33
2022-11-25T19:32:28.667Z,34.88
2022-11-25T19:35:08.820Z,33.05
2022-11-25T19:37:39.165Z,32.70
2022-11-25T19:40:18.611Z,35.47
2022-11-25T19:43:15.463Z,35.30
2022-11-25T19:45:44.672Z,32.35
2022-11-25T19:48:17.281Z,38.25
2022-11-25T19:50:48.386Z,61.92
2022-11-25T19:53:19.966Z,54.47
2022-11-25T19:55:48.969Z,48.50
2022-11-25T19:58:20.259Z,41.35
2022-11-25T20:00:51.028Z,37.92
2022-11-25T20:03:27.041Z,43.00
2022-11-25T20:05:55.324Z,39.20
2022-11-25T20:08:27.898Z,40.45
2022-11-25T20:10:58.983Z,36.72
2022-11-25T20:13:28.155Z,41.08
2022-11-25T20:15:58.220Z,41.63
2022-11-25T20:18:27.896Z,48.47
2022-11-25T20:21:03.553Z,35.97
2022-11-25T20:23:57.222Z,50.17
2022-11-25T20:26:31.264Z,43.67
2022-11-25T20:29:00.123Z,36.03
2022-11-25T20:31:30.781Z,35.95
2022-11-25T20:33:59.772Z,42.13
2022-11-25T20:36:34.328Z,36.58
2022-11-25T20:39:05.661Z,30.25
2022-11-25T20:41:34.293Z,31.80
2022-11-25T20:44:03.492Z,34.35
2022-11-25T20:46:32.258Z,32.38
2022-11-25T20:49:29.525Z,31.52
2022-11-25T20:52:01.418Z,30.50
2022-11-25T20:54:33.106Z,33.13
2022-11-25T20:57:02.872Z,41.30
2022-11-25T20:59:31.646Z,38.80
2022-11-25T21:01:59.908Z,36.80
2022-11-25T21:04:28.842Z,39.40
2022-11-25T21:06:57.494Z,39.90
2022-11-25T21:09:31.348Z,39.78
2022-11-25T21:11:59.568Z,41.80
2022-11-25T21:14:30.930Z,41.33
2022-11-25T21:16:59.482Z,39.65
2022-11-25T21:20:19.140Z,40.67
2022-11-25T21:22:50.683Z,41.20
2022-11-25T21:25:24.734Z,39.88
2022-11-25T21:27:59.103Z,39.60
2022-11-25T21:30:34.473Z,37.65
2022-11-25T21:33:02.835Z,38.95
2022-11-25T21:35:57.419Z,40.75
2022-11-25T21:38:27.543Z,38.97
2022-11-25T21:40:58.435Z,41.85
2022-11-25T21:43:33.927Z,41.58
2022-11-25T21:46:07.597Z,41.72
2022-11-25T21:51:05.261Z,39.85
2022-11-25T21:53:37.286Z,42.67
2022-11-25T21:56:28.309Z,41.97
2022-11-25T21:58:58.672Z,46.28
2022-11-25T22:01:29.034Z,43.00
2022-11-25T22:03:57.368Z,43.38
2022-11-25T22:06:32.157Z,58.65
2022-11-25T22:09:00.342Z,44.28
2022-11-25T22:11:35.408Z,53.15
2022-11-25T22:14:06.709Z,52.50
2022-11-25T22:16:37.208Z,51.55
2022-11-25T22:19:19.810Z,48.13
2022-11-25T22:21:48.950Z,48.10
2022-11-25T22:24:19.313Z,54.15
2022-11-25T22:26:54.634Z,66.45
2022-11-25T22:29:34.604Z,64.50
2022-11-25T22:32:08.230Z,75.25
2022-11-25T22:34:39.870Z,67.78
2022-11-25T22:37:20.514Z,67.18
2022-11-25T22:39:48.741Z,48.28
2022-11-25T22:42:26.843Z,48.10
2022-11-25T22:44:58.657Z,48.30
2022-11-25T22:47:34.965Z,46.95
2022-11-25T22:50:22.149Z,47.47
2022-11-25T22:52:52.019Z,50.90
2022-11-25T22:55:22.306Z,54.03
2022-11-25T22:57:54.594Z,57.30
2022-11-25T23:00:25.835Z,63.67
2022-11-25T23:02:57.069Z,60.45
2022-11-25T23:05:37.180Z,59.28
2022-11-25T23:08:13.930Z,60.00
2022-11-25T23:10:42.248Z,57.10
2022-11-25T23:13:10.968Z,53.15
2022-11-25T23:15:49.897Z,47.28
2022-11-25T23:21:45.011Z,49.38
2022-11-25T23:24:16.652Z,50.67
2022-11-25T23:26:45.134Z,51.88
2022-11-25T23:29:14.269Z,52.67
2022-11-25T23:31:46.490Z,54.08
2022-11-25T23:34:15.475Z,55.17
2022-11-25T23:36:48.732Z,56.72
2022-11-25T23:39:23.513Z,55.10
2022-11-25T23:41:52.910Z,55.20
2022-11-25T23:44:31.012Z,54.38
2022-11-25T23:47:02.978Z,54.50
2022-11-25T23:49:37.315Z,54.85
2022-11-25T23:52:08.456Z,51.67
2022-11-25T23:54:44.162Z,56.00
2022-11-25T23:57:20.208Z,52.72
2022-11-25T23:59:49.888Z,56.10
